岡山グライダークラブ活動状況掲示板あなたは無料カウンター人目の訪問者です

岡山グライダークラブ
岡山市浦安南町639-1 岡南飛行場
 使用機:シャイベ式 SF25C型 ファルケ   JA2330
      ヴァレンティン式17E型 タイフーン  JA2342
 練習日:毎日曜日  クラブルーム:電話 086-265-1810
この掲示板は岡山グライダークラブの活動状況をお知らせする掲示板です。
!!!この掲示板は投稿規制をしています。!!!
クラブ関連各種情報は 岡山グライダークラブクラブルーム      を       .
  ブリーフイング情報は  岡山グライダークラブブリーフィングルーム  をご覧下さい。 .
※写真はクリックすると拡大して見ることが出来ます。
岡南飛行場へのアクセス等は 岡南飛行場管理事務所 をご覧ください。
クラブの ホームページ ができました。

 
06月21日
by OGC at 2020/6/22(月) 00:04:16 No.20200621235401  削除コメント
1024 x 768 x 74,564バイト
No.1

06月21日
本日の参加者
  会員      16名
  その他      1名


@本日の様子




METAR
RJBK 210000Z 07006KT 030V090 30KM BKN/// 23/17 Q1010 A2982
RJOB 210000Z VRB03KT 9999 FEW020 BKN/// 21/15 Q1010
RJOT 210000Z 06008KT 9999 FEW015 BKN/// 21/17 Q1010
RJOA 210000Z 11004KT 080V160 9999 FEW015 BKN/// 20/15 Q1010
TAF
RJOB 202308Z 2100/2206 12006KT 9999 FEW030
     BECMG 2200/2203 21008KT
RJOT 202309Z 2100/2206 06010KT 9999 FEW025 SCT045
     BECMG 2110/2112 15005KT
RJOA 202308Z 2100/2206 13007KT 9999 FEW025


本日は曇り、風も弱くほぼ正対風で、着陸訓練日和。
訓練生はTGL訓練やNAV訓練、ライセンサーは高松空港でTGL訓練などを行っていました。



解散    18:50

1番機  10:15離陸 撤収機  18:20着陸 

SF25C JA2330 ファルケ     15Flt.3h50min  
17E   JA2342 タイフーン    05Flt.2h05min  
合計                    20Flt.5h55min

    << 戻る || ホームページ || 最新の掲示板へ